Terminal Aerodrome Forecast
Issued by NWS Duluth, MN

Home | Current Version | Previous Version | Text Only | Print | Product List | Glossary On
Versions: 1 2 3 4 5 6 7 8 9 10 11 12 13 14 15 16 17 18 19 20 21 22
000
FTUS43 KDLH 272333
TAFINL
TAF
KINL 272333Z 2800/2824 VRB03KT P6SM BKN080
     FM281000 13005KT P6SM VCSH SCT025 BKN040
     FM281300 14007KT P6SM -SHRA OVC040
     FM281600 18012G20KT P6SM VCTS BKN050CB=

USA.gov is the U.S. government's official web portal to all federal, state and local government web resources and services.